Elk Point, SD

1:21 PM CDT on May 24, 2015 (GMT -0500)
Rural Elk Point | | Change Station
CLOSE
Current Station
Personal Weather Station
Location: Elk Point, SD
Elevation: 1119 ft
Nearby Weather Stations

Elev 1119 ft 42.63 °N, 96.64 °W | Updated 36 seconds ago

Overcast
Overcast
62.8 °F
Feels Like 62.8 °F
N
6.9
Wind Variable Wind from East
Gusts 8.3 mph

Today
High -- | Low -- °F
--% Chance of Precip.
Yesterday
High -- | Low -- °F
Precip. -- in
5:56 AM 8:50 PM
Waxing Crescent, 41% visible
Pressure 29.83 in
Visibility 10.0 miles
Clouds Overcast 1100 ft
Dew Point 59 °F
Humidity 88%
Rainfall 0.07 in
Snow Depth Not available.
UV 3 out of 12
Pollen 2.90 out of 12
Air Quality Not available.
Flu Activity Sporadic
METAR KSUX 241752Z 09007KT 10SM OVC011 17/14 A2983 RMK AO2 SLP100 60010 T01720144 10172 20156 56014

More Conditions Fewer Conditions

Pressure 29.83 in
Visibility 10.0 miles
Clouds Overcast 1100 ft
Dew Point 59 °F
Humidity 88%
Rainfall 0.07 in
Snow Depth Not available.
UV 3 out of 12
Pollen 2.90 out of 12
Air Quality Not available.
Flu Activity Sporadic
METAR KSUX 241752Z 09007KT 10SM OVC011 17/14 A2983 RMK AO2 SLP100 60010 T01720144 10172 20156 56014

More Conditions Fewer Conditions

10-Day Weather Forecast

Almanac

Astronomy

May. 24, 2015 Rise Set
Actual Time
Civil Twilight
Nautical Twilight
Astronomical Twilight
Moon
Length of Visible Light
Length of Day
Tomorrow will be .
, % of the Moon is Illuminated

Today's Extremes

State Highs State Lows

Community

WunderPhotos

Upload Photos

1,823,819 photos uploaded!

WunderBlogs® & News

Nearby

Air Quality

  Air Quality AQ Index Pollutant
Not available.

Snow Depth

Station Depth Elevation

Earthquake Activity

City Distance Mag. Time & Date
Minimum magnitude displayed is 2.5.

Coastal Water Temperatures

Place Temperature

Stations

Nearby Weather Stations

Station Location Temp. Windchill Dew Point Humidity Wind Precip. Elev Updated Type